sensor_id;sensor_type;location;lat;lon;timestamp;P1;durP1;ratioP1;P2;durP2;ratioP2
22778;SDS011;11556;51.194;3.800;2023-03-29T00:01:22;7.03;;;3.40;;
22778;SDS011;11556;51.194;3.800;2023-03-29T00:03:49;4.93;;;3.22;;
22778;SDS011;11556;51.194;3.800;2023-03-29T00:06:15;6.60;;;3.47;;
22778;SDS011;11556;51.194;3.800;2023-03-29T00:08:46;6.10;;;3.38;;
22778;SDS011;11556;51.194;3.800;2023-03-29T00:11:15;9.90;;;3.33;;
22778;SDS011;11556;51.194;3.800;2023-03-29T00:13:41;7.75;;;3.72;;
22778;SDS011;11556;51.194;3.800;2023-03-29T00:16:07;8.93;;;3.85;;
22778;SDS011;11556;51.194;3.800;2023-03-29T00:18:33;6.10;;;3.55;;
22778;SDS011;11556;51.194;3.800;2023-03-29T00:20:59;14.70;;;4.47;;
22778;SDS011;11556;51.194;3.800;2023-03-29T00:23:25;8.35;;;3.78;;
22778;SDS011;11556;51.194;3.800;2023-03-29T00:25:54;9.40;;;4.35;;
22778;SDS011;11556;51.194;3.800;2023-03-29T00:28:20;7.43;;;4.50;;
22778;SDS011;11556;51.194;3.800;2023-03-29T00:30:46;12.65;;;5.25;;
22778;SDS011;11556;51.194;3.800;2023-03-29T00:33:14;11.68;;;4.63;;
22778;SDS011;11556;51.194;3.800;2023-03-29T00:35:40;10.70;;;5.05;;
22778;SDS011;11556;51.194;3.800;2023-03-29T00:38:06;8.75;;;4.78;;
22778;SDS011;11556;51.194;3.800;2023-03-29T00:40:32;10.75;;;4.75;;
22778;SDS011;11556;51.194;3.800;2023-03-29T00:42:58;8.20;;;4.72;;
22778;SDS011;11556;51.194;3.800;2023-03-29T00:45:25;7.80;;;4.53;;
22778;SDS011;11556;51.194;3.800;2023-03-29T00:47:57;9.18;;;4.80;;
22778;SDS011;11556;51.194;3.800;2023-03-29T00:52:58;12.57;;;5.47;;
22778;SDS011;11556;51.194;3.800;2023-03-29T00:55:34;14.80;;;5.72;;
22778;SDS011;11556;51.194;3.800;2023-03-29T00:58:03;12.00;;;5.18;;
22778;SDS011;11556;51.194;3.800;2023-03-29T01:00:34;11.93;;;5.93;;
22778;SDS011;11556;51.194;3.800;2023-03-29T01:03:07;14.95;;;5.45;;
22778;SDS011;11556;51.194;3.800;2023-03-29T01:05:48;17.08;;;5.82;;
22778;SDS011;11556;51.194;3.800;2023-03-29T01:08:29;14.00;;;4.93;;
22778;SDS011;11556;51.194;3.800;2023-03-29T01:11:03;9.15;;;4.25;;
22778;SDS011;11556;51.194;3.800;2023-03-29T01:13:34;6.85;;;3.50;;
22778;SDS011;11556;51.194;3.800;2023-03-29T01:16:06;8.50;;;3.95;;
22778;SDS011;11556;51.194;3.800;2023-03-29T01:18:35;8.55;;;3.63;;
22778;SDS011;11556;51.194;3.800;2023-03-29T01:21:35;8.70;;;3.30;;
22778;SDS011;11556;51.194;3.800;2023-03-29T01:24:10;7.88;;;3.15;;
22778;SDS011;11556;51.194;3.800;2023-03-29T01:27:04;5.43;;;3.30;;
22778;SDS011;11556;51.194;3.800;2023-03-29T01:29:54;4.50;;;3.20;;
22778;SDS011;11556;51.194;3.800;2023-03-29T01:32:36;6.72;;;3.30;;
22778;SDS011;11556;51.194;3.800;2023-03-29T01:37:46;6.88;;;3.63;;
22778;SDS011;11556;51.194;3.800;2023-03-29T01:40:16;6.55;;;3.03;;
22778;SDS011;11556;51.194;3.800;2023-03-29T01:45:14;7.82;;;3.42;;
22778;SDS011;11556;51.194;3.800;2023-03-29T01:47:58;5.13;;;3.10;;
22778;SDS011;11556;51.194;3.800;2023-03-29T01:50:41;8.20;;;3.88;;
22778;SDS011;11556;51.194;3.800;2023-03-29T01:53:18;5.40;;;3.05;;
22778;SDS011;11556;51.194;3.800;2023-03-29T01:55:50;4.82;;;2.97;;
22778;SDS011;11556;51.194;3.800;2023-03-29T01:58:20;8.13;;;3.17;;
22778;SDS011;11556;51.194;3.800;2023-03-29T02:00:49;3.88;;;2.72;;
22778;SDS011;11556;51.194;3.800;2023-03-29T02:03:19;7.00;;;3.25;;
22778;SDS011;11556;51.194;3.800;2023-03-29T02:05:48;7.47;;;3.33;;
22778;SDS011;11556;51.194;3.800;2023-03-29T02:08:15;3.83;;;2.80;;
22778;SDS011;11556;51.194;3.800;2023-03-29T02:10:43;4.85;;;2.90;;
22778;SDS011;11556;51.194;3.800;2023-03-29T02:13:09;10.65;;;3.60;;
22778;SDS011;11556;51.194;3.800;2023-03-29T02:15:35;6.15;;;3.30;;
22778;SDS011;11556;51.194;3.800;2023-03-29T02:18:01;7.43;;;3.72;;
22778;SDS011;11556;51.194;3.800;2023-03-29T02:20:31;6.07;;;3.40;;
22778;SDS011;11556;51.194;3.800;2023-03-29T02:23:22;7.57;;;3.88;;
22778;SDS011;11556;51.194;3.800;2023-03-29T02:25:52;4.82;;;3.28;;
22778;SDS011;11556;51.194;3.800;2023-03-29T02:28:21;6.53;;;3.03;;
22778;SDS011;11556;51.194;3.800;2023-03-29T02:36:32;7.25;;;2.80;;
22778;SDS011;11556;51.194;3.800;2023-03-29T02:39:10;4.78;;;2.92;;
22778;SDS011;11556;51.194;3.800;2023-03-29T02:41:39;5.07;;;3.20;;
22778;SDS011;11556;51.194;3.800;2023-03-29T02:44:09;9.57;;;3.50;;
22778;SDS011;11556;51.194;3.800;2023-03-29T02:46:38;5.18;;;3.40;;
22778;SDS011;11556;51.194;3.800;2023-03-29T02:49:06;7.40;;;3.70;;
22778;SDS011;11556;51.194;3.800;2023-03-29T02:51:34;6.70;;;3.20;;
22778;SDS011;11556;51.194;3.800;2023-03-29T02:54:14;5.35;;;3.45;;
22778;SDS011;11556;51.194;3.800;2023-03-29T02:57:16;6.50;;;3.40;;
22778;SDS011;11556;51.194;3.800;2023-03-29T03:02:02;6.15;;;3.10;;
22778;SDS011;11556;51.194;3.800;2023-03-29T03:04:29;6.53;;;3.30;;
22778;SDS011;11556;51.194;3.800;2023-03-29T03:06:55;6.05;;;3.50;;
22778;SDS011;11556;51.194;3.800;2023-03-29T03:09:21;7.25;;;3.15;;
22778;SDS011;11556;51.194;3.800;2023-03-29T03:11:47;7.25;;;3.35;;
22778;SDS011;11556;51.194;3.800;2023-03-29T03:14:13;9.38;;;3.53;;
22778;SDS011;11556;51.194;3.800;2023-03-29T03:16:38;5.43;;;3.28;;
22778;SDS011;11556;51.194;3.800;2023-03-29T03:19:04;6.25;;;3.58;;
22778;SDS011;11556;51.194;3.800;2023-03-29T03:21:30;5.28;;;3.50;;
22778;SDS011;11556;51.194;3.800;2023-03-29T03:23:56;6.95;;;3.42;;
22778;SDS011;11556;51.194;3.800;2023-03-29T03:26:22;7.75;;;3.60;;
22778;SDS011;11556;51.194;3.800;2023-03-29T03:28:48;9.10;;;3.65;;
22778;SDS011;11556;51.194;3.800;2023-03-29T03:31:15;8.10;;;3.53;;
22778;SDS011;11556;51.194;3.800;2023-03-29T03:33:41;6.55;;;3.60;;
22778;SDS011;11556;51.194;3.800;2023-03-29T03:36:07;5.72;;;3.53;;
22778;SDS011;11556;51.194;3.800;2023-03-29T03:38:34;5.97;;;3.08;;
22778;SDS011;11556;51.194;3.800;2023-03-29T03:41:00;7.07;;;3.47;;
22778;SDS011;11556;51.194;3.800;2023-03-29T03:43:26;6.25;;;3.72;;
22778;SDS011;11556;51.194;3.800;2023-03-29T03:45:53;9.15;;;3.60;;
22778;SDS011;11556;51.194;3.800;2023-03-29T03:48:19;7.10;;;3.20;;
22778;SDS011;11556;51.194;3.800;2023-03-29T03:50:46;9.30;;;4.00;;
22778;SDS011;11556;51.194;3.800;2023-03-29T03:53:16;6.03;;;4.00;;
22778;SDS011;11556;51.194;3.800;2023-03-29T03:55:49;5.68;;;3.63;;
22778;SDS011;11556;51.194;3.800;2023-03-29T03:58:16;7.05;;;3.90;;
22778;SDS011;11556;51.194;3.800;2023-03-29T04:00:42;10.40;;;3.53;;
22778;SDS011;11556;51.194;3.800;2023-03-29T04:03:08;7.93;;;3.63;;
22778;SDS011;11556;51.194;3.800;2023-03-29T04:05:38;6.18;;;3.60;;
22778;SDS011;11556;51.194;3.800;2023-03-29T04:08:05;5.85;;;3.60;;
22778;SDS011;11556;51.194;3.800;2023-03-29T04:10:31;8.07;;;3.72;;
22778;SDS011;11556;51.194;3.800;2023-03-29T04:13:00;6.03;;;3.55;;
22778;SDS011;11556;51.194;3.800;2023-03-29T04:15:27;6.80;;;3.35;;
22778;SDS011;11556;51.194;3.800;2023-03-29T04:17:54;6.63;;;3.70;;
22778;SDS011;11556;51.194;3.800;2023-03-29T04:20:20;6.00;;;3.65;;
22778;SDS011;11556;51.194;3.800;2023-03-29T04:22:46;5.70;;;3.53;;
22778;SDS011;11556;51.194;3.800;2023-03-29T04:25:12;6.20;;;4.00;;
22778;SDS011;11556;51.194;3.800;2023-03-29T04:27:38;6.65;;;3.75;;
22778;SDS011;11556;51.194;3.800;2023-03-29T04:30:04;6.82;;;3.83;;
22778;SDS011;11556;51.194;3.800;2023-03-29T04:32:31;9.02;;;4.28;;
22778;SDS011;11556;51.194;3.800;2023-03-29T04:34:57;9.50;;;4.47;;
22778;SDS011;11556;51.194;3.800;2023-03-29T04:37:22;5.95;;;3.97;;
22778;SDS011;11556;51.194;3.800;2023-03-29T04:39:48;6.68;;;4.05;;
22778;SDS011;11556;51.194;3.800;2023-03-29T04:42:14;9.00;;;4.43;;
22778;SDS011;11556;51.194;3.800;2023-03-29T04:44:41;8.77;;;4.32;;
22778;SDS011;11556;51.194;3.800;2023-03-29T04:47:07;6.47;;;3.50;;
22778;SDS011;11556;51.194;3.800;2023-03-29T04:49:36;8.75;;;3.85;;
22778;SDS011;11556;51.194;3.800;2023-03-29T04:52:01;7.65;;;4.30;;
22778;SDS011;11556;51.194;3.800;2023-03-29T04:54:27;10.00;;;4.82;;
22778;SDS011;11556;51.194;3.800;2023-03-29T04:56:52;12.63;;;4.32;;
22778;SDS011;11556;51.194;3.800;2023-03-29T04:59:18;10.00;;;4.15;;
22778;SDS011;11556;51.194;3.800;2023-03-29T05:01:44;9.38;;;4.32;;
22778;SDS011;11556;51.194;3.800;2023-03-29T05:04:10;7.88;;;4.25;;
22778;SDS011;11556;51.194;3.800;2023-03-29T05:06:35;7.20;;;4.63;;
22778;SDS011;11556;51.194;3.800;2023-03-29T05:09:01;8.45;;;4.55;;
22778;SDS011;11556;51.194;3.800;2023-03-29T05:11:28;8.13;;;5.07;;
22778;SDS011;11556;51.194;3.800;2023-03-29T05:13:55;7.85;;;3.83;;
22778;SDS011;11556;51.194;3.800;2023-03-29T05:16:26;10.63;;;5.28;;
22778;SDS011;11556;51.194;3.800;2023-03-29T05:18:54;9.82;;;4.60;;
22778;SDS011;11556;51.194;3.800;2023-03-29T05:21:20;9.52;;;4.78;;
22778;SDS011;11556;51.194;3.800;2023-03-29T05:23:46;11.20;;;5.22;;
22778;SDS011;11556;51.194;3.800;2023-03-29T05:26:12;19.73;;;10.02;;
22778;SDS011;11556;51.194;3.800;2023-03-29T05:28:39;16.67;;;9.02;;
22778;SDS011;11556;51.194;3.800;2023-03-29T05:31:05;25.25;;;15.15;;
22778;SDS011;11556;51.194;3.800;2023-03-29T05:33:31;27.77;;;13.82;;
22778;SDS011;11556;51.194;3.800;2023-03-29T05:35:59;12.50;;;6.80;;
22778;SDS011;11556;51.194;3.800;2023-03-29T05:38:26;9.60;;;5.43;;
22778;SDS011;11556;51.194;3.800;2023-03-29T05:40:53;12.50;;;5.10;;
22778;SDS011;11556;51.194;3.800;2023-03-29T05:43:20;9.07;;;5.20;;
22778;SDS011;11556;51.194;3.800;2023-03-29T05:45:46;7.25;;;4.88;;
22778;SDS011;11556;51.194;3.800;2023-03-29T05:48:12;11.88;;;4.93;;
22778;SDS011;11556;51.194;3.800;2023-03-29T05:50:37;14.48;;;5.28;;
22778;SDS011;11556;51.194;3.800;2023-03-29T05:53:03;15.35;;;7.20;;
22778;SDS011;11556;51.194;3.800;2023-03-29T05:55:29;15.63;;;8.80;;
22778;SDS011;11556;51.194;3.800;2023-03-29T05:57:54;11.70;;;7.50;;
22778;SDS011;11556;51.194;3.800;2023-03-29T06:00:20;12.32;;;6.30;;
22778;SDS011;11556;51.194;3.800;2023-03-29T06:02:50;11.98;;;6.95;;
22778;SDS011;11556;51.194;3.800;2023-03-29T06:05:20;11.68;;;6.40;;
22778;SDS011;11556;51.194;3.800;2023-03-29T06:07:46;13.70;;;6.20;;
22778;SDS011;11556;51.194;3.800;2023-03-29T06:10:13;13.18;;;5.28;;
22778;SDS011;11556;51.194;3.800;2023-03-29T06:12:39;9.88;;;5.57;;
22778;SDS011;11556;51.194;3.800;2023-03-29T06:15:06;9.35;;;4.93;;
22778;SDS011;11556;51.194;3.800;2023-03-29T06:17:32;10.00;;;5.47;;
22778;SDS011;11556;51.194;3.800;2023-03-29T06:19:59;12.95;;;6.80;;
22778;SDS011;11556;51.194;3.800;2023-03-29T06:22:25;12.98;;;6.82;;
22778;SDS011;11556;51.194;3.800;2023-03-29T06:24:51;7.60;;;4.63;;
22778;SDS011;11556;51.194;3.800;2023-03-29T06:27:17;10.77;;;5.53;;
22778;SDS011;11556;51.194;3.800;2023-03-29T06:29:43;14.95;;;8.30;;
22778;SDS011;11556;51.194;3.800;2023-03-29T06:32:09;12.43;;;6.05;;
22778;SDS011;11556;51.194;3.800;2023-03-29T06:34:35;9.68;;;5.70;;
22778;SDS011;11556;51.194;3.800;2023-03-29T06:37:01;10.73;;;7.18;;
22778;SDS011;11556;51.194;3.800;2023-03-29T06:39:27;10.18;;;6.65;;
22778;SDS011;11556;51.194;3.800;2023-03-29T06:41:53;16.00;;;9.85;;
22778;SDS011;11556;51.194;3.800;2023-03-29T06:44:20;12.15;;;6.15;;
22778;SDS011;11556;51.194;3.800;2023-03-29T06:46:45;9.52;;;5.38;;
22778;SDS011;11556;51.194;3.800;2023-03-29T06:49:11;13.10;;;5.90;;
22778;SDS011;11556;51.194;3.800;2023-03-29T06:51:36;12.65;;;5.55;;
22778;SDS011;11556;51.194;3.800;2023-03-29T06:54:03;13.90;;;5.80;;
22778;SDS011;11556;51.194;3.800;2023-03-29T06:56:29;14.45;;;6.22;;
22778;SDS011;11556;51.194;3.800;2023-03-29T06:58:56;13.10;;;5.47;;
22778;SDS011;11556;51.194;3.800;2023-03-29T07:01:21;10.70;;;5.15;;
22778;SDS011;11556;51.194;3.800;2023-03-29T07:03:47;12.90;;;5.80;;
22778;SDS011;11556;51.194;3.800;2023-03-29T07:06:13;11.52;;;5.70;;
22778;SDS011;11556;51.194;3.800;2023-03-29T07:08:41;11.40;;;5.68;;
22778;SDS011;11556;51.194;3.800;2023-03-29T07:11:11;14.00;;;5.82;;
22778;SDS011;11556;51.194;3.800;2023-03-29T07:13:38;9.88;;;5.60;;
22778;SDS011;11556;51.194;3.800;2023-03-29T07:16:06;11.90;;;5.97;;
22778;SDS011;11556;51.194;3.800;2023-03-29T07:18:36;9.23;;;5.43;;
22778;SDS011;11556;51.194;3.800;2023-03-29T07:21:06;16.70;;;6.55;;
22778;SDS011;11556;51.194;3.800;2023-03-29T07:23:32;12.77;;;6.43;;
22778;SDS011;11556;51.194;3.800;2023-03-29T07:25:58;11.65;;;6.28;;
22778;SDS011;11556;51.194;3.800;2023-03-29T07:28:23;10.57;;;5.80;;
22778;SDS011;11556;51.194;3.800;2023-03-29T07:30:49;11.80;;;5.78;;
22778;SDS011;11556;51.194;3.800;2023-03-29T07:33:15;11.10;;;5.30;;
22778;SDS011;11556;51.194;3.800;2023-03-29T07:35:41;8.52;;;5.00;;
22778;SDS011;11556;51.194;3.800;2023-03-29T07:38:08;10.75;;;5.75;;
22778;SDS011;11556;51.194;3.800;2023-03-29T07:40:34;11.27;;;5.75;;
22778;SDS011;11556;51.194;3.800;2023-03-29T07:43:00;17.35;;;6.20;;
22778;SDS011;11556;51.194;3.800;2023-03-29T07:45:31;13.85;;;5.75;;
22778;SDS011;11556;51.194;3.800;2023-03-29T07:47:57;16.80;;;7.45;;
22778;SDS011;11556;51.194;3.800;2023-03-29T07:50:23;14.73;;;6.30;;
22778;SDS011;11556;51.194;3.800;2023-03-29T07:52:49;14.40;;;7.50;;
22778;SDS011;11556;51.194;3.800;2023-03-29T07:55:15;14.13;;;7.43;;
22778;SDS011;11556;51.194;3.800;2023-03-29T07:57:41;19.45;;;9.70;;
22778;SDS011;11556;51.194;3.800;2023-03-29T08:00:08;16.10;;;6.50;;
22778;SDS011;11556;51.194;3.800;2023-03-29T08:02:43;16.88;;;7.38;;
22778;SDS011;11556;51.194;3.800;2023-03-29T08:05:10;19.70;;;8.02;;
22778;SDS011;11556;51.194;3.800;2023-03-29T08:07:40;13.82;;;6.47;;
22778;SDS011;11556;51.194;3.800;2023-03-29T08:10:07;11.02;;;5.78;;
22778;SDS011;11556;51.194;3.800;2023-03-29T08:12:39;15.82;;;6.97;;
22778;SDS011;11556;51.194;3.800;2023-03-29T08:15:06;23.25;;;9.45;;
22778;SDS011;11556;51.194;3.800;2023-03-29T08:17:33;19.30;;;8.43;;
22778;SDS011;11556;51.194;3.800;2023-03-29T08:20:00;20.48;;;7.35;;
22778;SDS011;11556;51.194;3.800;2023-03-29T08:22:26;18.85;;;7.65;;
22778;SDS011;11556;51.194;3.800;2023-03-29T08:24:52;21.83;;;8.48;;
22778;SDS011;11556;51.194;3.800;2023-03-29T08:27:18;14.35;;;6.75;;
22778;SDS011;11556;51.194;3.800;2023-03-29T08:29:44;16.33;;;7.85;;
22778;SDS011;11556;51.194;3.800;2023-03-29T08:32:10;18.77;;;8.48;;
22778;SDS011;11556;51.194;3.800;2023-03-29T08:34:36;14.68;;;6.95;;
22778;SDS011;11556;51.194;3.800;2023-03-29T08:37:02;20.15;;;7.60;;
22778;SDS011;11556;51.194;3.800;2023-03-29T08:39:28;21.08;;;6.85;;
22778;SDS011;11556;51.194;3.800;2023-03-29T08:49:58;10.75;;;5.75;;
22778;SDS011;11556;51.194;3.800;2023-03-29T08:52:33;15.43;;;6.43;;
22778;SDS011;11556;51.194;3.800;2023-03-29T08:55:02;12.77;;;6.10;;
22778;SDS011;11556;51.194;3.800;2023-03-29T08:57:53;13.98;;;6.07;;
22778;SDS011;11556;51.194;3.800;2023-03-29T09:00:20;14.32;;;5.78;;
22778;SDS011;11556;51.194;3.800;2023-03-29T09:02:53;24.90;;;9.82;;
22778;SDS011;11556;51.194;3.800;2023-03-29T09:05:38;10.30;;;6.03;;
22778;SDS011;11556;51.194;3.800;2023-03-29T09:08:16;10.18;;;5.95;;
22778;SDS011;11556;51.194;3.800;2023-03-29T09:10:50;7.43;;;5.20;;
22778;SDS011;11556;51.194;3.800;2023-03-29T09:13:48;11.25;;;5.57;;
22778;SDS011;11556;51.194;3.800;2023-03-29T09:19:04;9.77;;;5.82;;
22778;SDS011;11556;51.194;3.800;2023-03-29T09:24:47;11.60;;;5.90;;
22778;SDS011;11556;51.194;3.800;2023-03-29T09:30:12;10.75;;;5.93;;
22778;SDS011;11556;51.194;3.800;2023-03-29T09:32:53;7.88;;;5.00;;
22778;SDS011;11556;51.194;3.800;2023-03-29T09:35:30;12.43;;;6.28;;
22778;SDS011;11556;51.194;3.800;2023-03-29T09:38:03;15.88;;;7.10;;
22778;SDS011;11556;51.194;3.800;2023-03-29T09:40:52;18.52;;;6.78;;
22778;SDS011;11556;51.194;3.800;2023-03-29T09:43:42;10.65;;;5.53;;
22778;SDS011;11556;51.194;3.800;2023-03-29T09:46:10;9.25;;;5.25;;
22778;SDS011;11556;51.194;3.800;2023-03-29T09:48:54;12.10;;;5.57;;
22778;SDS011;11556;51.194;3.800;2023-03-29T09:51:21;7.97;;;5.63;;
22778;SDS011;11556;51.194;3.800;2023-03-29T09:53:51;8.68;;;5.72;;
22778;SDS011;11556;51.194;3.800;2023-03-29T09:56:18;9.85;;;5.20;;
22778;SDS011;11556;51.194;3.800;2023-03-29T09:58:44;7.85;;;4.55;;
22778;SDS011;11556;51.194;3.800;2023-03-29T10:01:11;8.88;;;5.57;;
22778;SDS011;11556;51.194;3.800;2023-03-29T10:03:39;10.43;;;5.68;;
22778;SDS011;11556;51.194;3.800;2023-03-29T10:06:07;8.60;;;4.93;;
22778;SDS011;11556;51.194;3.800;2023-03-29T10:08:37;9.52;;;5.47;;
22778;SDS011;11556;51.194;3.800;2023-03-29T10:14:02;10.77;;;4.82;;
22778;SDS011;11556;51.194;3.800;2023-03-29T10:16:36;11.15;;;6.20;;
22778;SDS011;11556;51.194;3.800;2023-03-29T10:19:18;7.45;;;4.70;;
22778;SDS011;11556;51.194;3.800;2023-03-29T10:21:50;6.80;;;4.45;;
22778;SDS011;11556;51.194;3.800;2023-03-29T10:24:20;12.23;;;5.28;;
22778;SDS011;11556;51.194;3.800;2023-03-29T10:26:48;8.63;;;4.70;;
22778;SDS011;11556;51.194;3.800;2023-03-29T10:29:20;7.82;;;5.10;;
22778;SDS011;11556;51.194;3.800;2023-03-29T10:31:47;7.97;;;5.00;;
22778;SDS011;11556;51.194;3.800;2023-03-29T10:34:14;7.10;;;4.80;;
22778;SDS011;11556;51.194;3.800;2023-03-29T10:36:42;9.77;;;6.13;;
22778;SDS011;11556;51.194;3.800;2023-03-29T10:39:15;12.23;;;7.78;;
22778;SDS011;11556;51.194;3.800;2023-03-29T10:41:40;16.08;;;10.25;;
22778;SDS011;11556;51.194;3.800;2023-03-29T10:44:21;12.63;;;6.10;;
22778;SDS011;11556;51.194;3.800;2023-03-29T10:46:51;10.80;;;7.38;;
22778;SDS011;11556;51.194;3.800;2023-03-29T10:49:18;9.45;;;7.47;;
22778;SDS011;11556;51.194;3.800;2023-03-29T10:51:46;9.82;;;5.80;;
22778;SDS011;11556;51.194;3.800;2023-03-29T10:54:16;8.38;;;5.22;;
22778;SDS011;11556;51.194;3.800;2023-03-29T10:56:49;7.30;;;4.75;;
22778;SDS011;11556;51.194;3.800;2023-03-29T11:19:44;7.50;;;5.10;;
22778;SDS011;11556;51.194;3.800;2023-03-29T11:27:41;9.32;;;5.07;;
22778;SDS011;11556;51.194;3.800;2023-03-29T11:30:18;9.50;;;5.47;;
22778;SDS011;11556;51.194;3.800;2023-03-29T11:32:53;12.18;;;5.93;;
22778;SDS011;11556;51.194;3.800;2023-03-29T11:35:44;8.88;;;5.20;;
22778;SDS011;11556;51.194;3.800;2023-03-29T11:38:28;9.60;;;5.47;;
22778;SDS011;11556;51.194;3.800;2023-03-29T11:43:48;8.95;;;5.05;;
22778;SDS011;11556;51.194;3.800;2023-03-29T11:46:47;8.75;;;5.93;;
22778;SDS011;11556;51.194;3.800;2023-03-29T11:49:22;9.05;;;5.18;;
22778;SDS011;11556;51.194;3.800;2023-03-29T11:52:05;8.07;;;5.53;;
22778;SDS011;11556;51.194;3.800;2023-03-29T11:59:51;8.70;;;5.55;;
22778;SDS011;11556;51.194;3.800;2023-03-29T12:02:21;7.78;;;4.82;;
22778;SDS011;11556;51.194;3.800;2023-03-29T12:04:57;9.32;;;4.82;;
22778;SDS011;11556;51.194;3.800;2023-03-29T12:07:30;9.02;;;4.70;;
22778;SDS011;11556;51.194;3.800;2023-03-29T12:10:02;8.60;;;5.00;;
22778;SDS011;11556;51.194;3.800;2023-03-29T12:12:56;14.80;;;5.07;;
22778;SDS011;11556;51.194;3.800;2023-03-29T12:15:25;6.47;;;4.35;;
22778;SDS011;11556;51.194;3.800;2023-03-29T12:20:37;6.63;;;3.60;;
22778;SDS011;11556;51.194;3.800;2023-03-29T12:23:05;6.82;;;3.50;;
22778;SDS011;11556;51.194;3.800;2023-03-29T12:28:43;6.85;;;3.40;;
22778;SDS011;11556;51.194;3.800;2023-03-29T12:31:36;8.88;;;4.00;;
22778;SDS011;11556;51.194;3.800;2023-03-29T12:34:09;8.27;;;3.42;;
22778;SDS011;11556;51.194;3.800;2023-03-29T12:39:37;5.82;;;3.00;;
22778;SDS011;11556;51.194;3.800;2023-03-29T12:42:19;6.03;;;3.28;;
22778;SDS011;11556;51.194;3.800;2023-03-29T12:44:50;10.82;;;3.80;;
22778;SDS011;11556;51.194;3.800;2023-03-29T12:47:23;5.35;;;3.30;;
22778;SDS011;11556;51.194;3.800;2023-03-29T12:49:54;6.18;;;2.95;;
22778;SDS011;11556;51.194;3.800;2023-03-29T12:52:34;5.38;;;3.08;;
22778;SDS011;11556;51.194;3.800;2023-03-29T12:55:22;5.68;;;3.40;;
22778;SDS011;11556;51.194;3.800;2023-03-29T12:58:00;7.07;;;3.10;;
22778;SDS011;11556;51.194;3.800;2023-03-29T13:00:55;5.28;;;3.03;;
22778;SDS011;11556;51.194;3.800;2023-03-29T13:06:00;7.50;;;3.60;;
22778;SDS011;11556;51.194;3.800;2023-03-29T13:08:36;4.93;;;3.25;;
22778;SDS011;11556;51.194;3.800;2023-03-29T13:11:30;4.05;;;3.50;;
22778;SDS011;11556;51.194;3.800;2023-03-29T13:14:09;6.25;;;4.05;;
22778;SDS011;11556;51.194;3.800;2023-03-29T13:16:40;7.03;;;3.42;;
22778;SDS011;11556;51.194;3.800;2023-03-29T13:34:55;5.80;;;2.87;;
22778;SDS011;11556;51.194;3.800;2023-03-29T13:39:59;3.58;;;2.60;;
22778;SDS011;11556;51.194;3.800;2023-03-29T13:45:14;6.60;;;2.72;;
22778;SDS011;11556;51.194;3.800;2023-03-29T13:47:47;7.13;;;2.78;;
22778;SDS011;11556;51.194;3.800;2023-03-29T13:50:18;4.75;;;2.97;;
22778;SDS011;11556;51.194;3.800;2023-03-29T13:53:05;4.93;;;2.63;;
22778;SDS011;11556;51.194;3.800;2023-03-29T13:55:43;5.70;;;3.03;;
22778;SDS011;11556;51.194;3.800;2023-03-29T13:58:14;3.92;;;2.70;;
22778;SDS011;11556;51.194;3.800;2023-03-29T14:01:07;5.35;;;2.80;;
22778;SDS011;11556;51.194;3.800;2023-03-29T14:03:45;7.80;;;3.10;;
22778;SDS011;11556;51.194;3.800;2023-03-29T14:06:14;6.38;;;2.78;;
22778;SDS011;11556;51.194;3.800;2023-03-29T14:08:45;8.32;;;3.10;;
22778;SDS011;11556;51.194;3.800;2023-03-29T14:11:23;4.40;;;3.10;;
22778;SDS011;11556;51.194;3.800;2023-03-29T14:13:52;6.63;;;3.35;;
22778;SDS011;11556;51.194;3.800;2023-03-29T14:16:26;7.30;;;5.10;;
22778;SDS011;11556;51.194;3.800;2023-03-29T14:18:57;5.57;;;3.88;;
22778;SDS011;11556;51.194;3.800;2023-03-29T14:21:23;7.13;;;4.00;;
22778;SDS011;11556;51.194;3.800;2023-03-29T14:23:53;5.80;;;4.05;;
22778;SDS011;11556;51.194;3.800;2023-03-29T14:26:23;4.97;;;4.03;;
22778;SDS011;11556;51.194;3.800;2023-03-29T14:28:54;5.20;;;4.00;;
22778;SDS011;11556;51.194;3.800;2023-03-29T14:31:31;8.13;;;3.70;;
22778;SDS011;11556;51.194;3.800;2023-03-29T14:34:00;12.20;;;4.45;;
22778;SDS011;11556;51.194;3.800;2023-03-29T14:36:27;3.60;;;3.10;;
22778;SDS011;11556;51.194;3.800;2023-03-29T14:39:04;5.25;;;3.92;;
22778;SDS011;11556;51.194;3.800;2023-03-29T14:41:36;7.95;;;4.35;;
22778;SDS011;11556;51.194;3.800;2023-03-29T14:44:06;5.53;;;4.15;;
22778;SDS011;11556;51.194;3.800;2023-03-29T14:46:32;6.38;;;4.05;;
22778;SDS011;11556;51.194;3.800;2023-03-29T14:48:59;11.48;;;4.63;;
22778;SDS011;11556;51.194;3.800;2023-03-29T14:51:26;8.98;;;4.55;;
22778;SDS011;11556;51.194;3.800;2023-03-29T14:53:56;9.40;;;5.10;;
22778;SDS011;11556;51.194;3.800;2023-03-29T14:56:22;10.73;;;4.47;;
22778;SDS011;11556;51.194;3.800;2023-03-29T14:58:52;10.10;;;4.90;;
22778;SDS011;11556;51.194;3.800;2023-03-29T15:01:20;7.95;;;4.90;;
22778;SDS011;11556;51.194;3.800;2023-03-29T15:06:13;8.18;;;4.97;;
22778;SDS011;11556;51.194;3.800;2023-03-29T15:08:39;7.93;;;4.88;;
22778;SDS011;11556;51.194;3.800;2023-03-29T15:11:17;10.68;;;4.28;;
22778;SDS011;11556;51.194;3.800;2023-03-29T15:13:46;9.60;;;5.47;;
22778;SDS011;11556;51.194;3.800;2023-03-29T15:16:18;7.22;;;4.57;;
22778;SDS011;11556;51.194;3.800;2023-03-29T15:18:45;10.93;;;5.10;;
22778;SDS011;11556;51.194;3.800;2023-03-29T15:21:14;9.30;;;4.93;;
22778;SDS011;11556;51.194;3.800;2023-03-29T15:23:47;7.75;;;4.63;;
22778;SDS011;11556;51.194;3.800;2023-03-29T15:26:21;8.98;;;4.88;;
22778;SDS011;11556;51.194;3.800;2023-03-29T15:28:59;9.38;;;4.70;;
22778;SDS011;11556;51.194;3.800;2023-03-29T15:32:18;9.35;;;4.72;;
22778;SDS011;11556;51.194;3.800;2023-03-29T15:34:27;8.18;;;4.60;;
22778;SDS011;11556;51.194;3.800;2023-03-29T15:36:54;9.23;;;5.13;;
22778;SDS011;11556;51.194;3.800;2023-03-29T15:39:23;11.45;;;4.63;;
22778;SDS011;11556;51.194;3.800;2023-03-29T15:41:51;8.18;;;5.18;;
22778;SDS011;11556;51.194;3.800;2023-03-29T15:44:22;10.45;;;4.97;;
22778;SDS011;11556;51.194;3.800;2023-03-29T15:46:52;10.93;;;5.30;;
22778;SDS011;11556;51.194;3.800;2023-03-29T15:49:19;11.43;;;5.15;;
22778;SDS011;11556;51.194;3.800;2023-03-29T15:51:45;9.02;;;5.57;;
22778;SDS011;11556;51.194;3.800;2023-03-29T15:54:10;9.02;;;5.15;;
22778;SDS011;11556;51.194;3.800;2023-03-29T15:56:37;8.23;;;5.22;;
22778;SDS011;11556;51.194;3.800;2023-03-29T15:59:14;11.25;;;5.68;;
22778;SDS011;11556;51.194;3.800;2023-03-29T16:01:41;8.60;;;5.30;;
22778;SDS011;11556;51.194;3.800;2023-03-29T16:04:14;7.80;;;5.20;;
22778;SDS011;11556;51.194;3.800;2023-03-29T16:06:42;11.95;;;5.97;;
22778;SDS011;11556;51.194;3.800;2023-03-29T16:09:09;8.45;;;5.55;;
22778;SDS011;11556;51.194;3.800;2023-03-29T16:11:38;10.35;;;5.18;;
22778;SDS011;11556;51.194;3.800;2023-03-29T16:14:21;10.23;;;5.45;;
22778;SDS011;11556;51.194;3.800;2023-03-29T16:16:52;8.93;;;5.70;;
22778;SDS011;11556;51.194;3.800;2023-03-29T16:19:21;10.27;;;5.53;;
22778;SDS011;11556;51.194;3.800;2023-03-29T16:21:47;13.30;;;6.50;;
22778;SDS011;11556;51.194;3.800;2023-03-29T16:24:20;10.07;;;6.15;;
22778;SDS011;11556;51.194;3.800;2023-03-29T16:26:48;13.32;;;6.32;;
22778;SDS011;11556;51.194;3.800;2023-03-29T16:29:15;14.38;;;5.75;;
22778;SDS011;11556;51.194;3.800;2023-03-29T16:31:42;9.75;;;5.38;;
22778;SDS011;11556;51.194;3.800;2023-03-29T16:34:09;11.52;;;5.85;;
22778;SDS011;11556;51.194;3.800;2023-03-29T16:36:37;8.45;;;5.50;;
22778;SDS011;11556;51.194;3.800;2023-03-29T16:39:03;8.73;;;5.15;;
22778;SDS011;11556;51.194;3.800;2023-03-29T16:41:29;10.75;;;5.80;;
22778;SDS011;11556;51.194;3.800;2023-03-29T16:43:56;12.73;;;5.40;;
22778;SDS011;11556;51.194;3.800;2023-03-29T16:46:22;15.75;;;6.38;;